Time;durP1;ratioP1;P1;durP2;ratioP2;P2;SDS_P1;SDS_P2;PMS_P1;PMS_P2;Temp;Humidity;BMP_temperature;BMP_pressure;BME280_temperature;BME280_humidity;BME280_pressure;Samples;Min_cycle;Max_cycle;Signal;HPM_P1;HPM_P2
2024/01/25 00:04:34;;;;;;;10.80;1.75;;;;;;;;;;10486022;28;20121;-79
2024/01/25 00:09:37;;;;;;;;;;;;;;;;;;10482053;28;20040;-78
2024/01/25 00:14:42;;;;;;;10.85;1.52;;;;;;;;;;10486751;28;19943;-78
2024/01/25 00:19:46;;;;;;;2.97;0.93;;;;;;;;;;10486215;28;20055;-78
2024/01/25 00:24:49;;;;;;;;;;;;;;;;;;10473978;28;20053;-79
2024/01/25 00:29:52;;;;;;;8.68;1.60;;;;;;;;;;10478200;28;20027;-78
2024/01/25 00:34:56;;;;;;;9.23;1.48;;;;;;;;;;10477743;28;20118;-77
2024/01/25 00:39:59;;;;;;;4.38;1.10;;;;;;;;;;10479533;28;20056;-77
2024/01/25 00:45:02;;;;;;;6.25;1.20;;;;;;;;;;10475315;28;20138;-78
2024/01/25 00:50:07;;;;;;;4.07;1.42;;;;;;;;;;10477099;28;20116;-79
2024/01/25 00:55:11;;;;;;;4.18;0.80;;;;;;;;;;10481053;28;20034;-79
2024/01/25 01:00:14;;;;;;;3.63;0.70;;;;;;;;;;10485071;28;20118;-78
2024/01/25 01:05:18;;;;;;;3.40;0.60;;;;;;;;;;10477181;28;20040;-78
2024/01/25 01:10:21;;;;;;;2.72;1.10;;;;;;;;;;10475909;28;20085;-78
2024/01/25 01:15:24;;;;;;;4.85;1.10;;;;;;;;;;10473063;28;20118;-78
2024/01/25 01:20:28;;;;;;;4.45;1.17;;;;;;;;;;10481904;28;20133;-77
2024/01/25 01:25:31;;;;;;;6.20;1.20;;;;;;;;;;10474573;28;20089;-77
2024/01/25 01:30:33;;;;;;;4.30;1.10;;;;;;;;;;10474494;28;20060;-79
2024/01/25 01:35:37;;;;;;;4.68;0.93;;;;;;;;;;10478447;28;20521;-77
2024/01/25 01:40:40;;;;;;;7.78;1.27;;;;;;;;;;10475631;28;20200;-79
2024/01/25 01:45:42;;;;;;;9.10;1.67;;;;;;;;;;10475660;28;20075;-79
2024/01/25 01:50:48;;;;;;;3.38;1.17;;;;;;;;;;10483966;28;20060;-79
2024/01/25 01:55:51;;;;;;;7.00;1.35;;;;;;;;;;10488223;28;20343;-78
2024/01/25 02:00:54;;;;;;;16.70;1.35;;;;;;;;;;10484513;28;20049;-78
2024/01/25 02:06:02;;;;;;;4.55;1.08;;;;;;;;;;10488417;28;20060;-79
2024/01/25 02:11:05;;;;;;;5.43;1.40;;;;;;;;;;10483463;28;20052;-77
2024/01/25 02:16:08;;;;;;;9.63;1.25;;;;;;;;;;10486043;28;20462;-79
2024/01/25 02:21:12;;;;;;;8.57;1.27;;;;;;;;;;10486604;28;20074;-79
2024/01/25 02:26:16;;;;;;;4.00;1.50;;;;;;;;;;10469648;28;20040;-77
2024/01/25 02:31:19;;;;;;;8.82;1.63;;;;;;;;;;10483395;28;22618;-78
2024/01/25 02:36:22;;;;;;;8.85;1.23;;;;;;;;;;10484986;28;20556;-78
2024/01/25 02:41:29;;;;;;;1.02;0.55;;;;;;;;;;10486064;28;20057;-79
2024/01/25 02:46:32;;;;;;;5.10;1.33;;;;;;;;;;10480286;28;20041;-79
2024/01/25 02:51:34;;;;;;;7.60;1.13;;;;;;;;;;10477054;28;20155;-77
2024/01/25 02:56:38;;;;;;;8.57;0.90;;;;;;;;;;10481613;28;20483;-78
2024/01/25 03:01:41;;;;;;;;;;;;;;;;;;10480857;28;20120;-78
2024/01/25 03:06:44;;;;;;;5.13;1.13;;;;;;;;;;10483987;28;20077;-78
2024/01/25 03:11:48;;;;;;;8.52;1.20;;;;;;;;;;10480830;28;20066;-79
2024/01/25 03:16:51;;;;;;;2.65;1.10;;;;;;;;;;10479535;28;20197;-78
2024/01/25 03:21:54;;;;;;;4.68;1.00;;;;;;;;;;10484826;28;20421;-75
2024/01/25 03:26:58;;;;;;;6.00;1.05;;;;;;;;;;10477619;28;20135;-78
2024/01/25 03:32:01;;;;;;;3.28;1.33;;;;;;;;;;10482228;28;20480;-78
2024/01/25 03:37:04;;;;;;;2.05;0.57;;;;;;;;;;10478804;28;20043;-78
2024/01/25 03:42:08;;;;;;;5.85;1.30;;;;;;;;;;10476548;28;20563;-78
2024/01/25 03:47:11;;;;;;;6.97;1.40;;;;;;;;;;10482650;28;20391;-77
2024/01/25 03:52:13;;;;;;;5.80;1.15;;;;;;;;;;10479859;28;20041;-79
2024/01/25 03:57:18;;;;;;;3.60;0.93;;;;;;;;;;10488629;28;20500;-78
2024/01/25 04:02:21;;;;;;;7.25;1.60;;;;;;;;;;10481870;28;20506;-77
2024/01/25 04:07:24;;;;;;;4.05;1.17;;;;;;;;;;10476518;28;20125;-78
2024/01/25 04:12:28;;;;;;;7.32;1.17;;;;;;;;;;10477470;28;20043;-77
2024/01/25 04:17:30;;;;;;;6.53;1.10;;;;;;;;;;10481373;28;20048;-78
2024/01/25 04:22:33;;;;;;;4.00;1.05;;;;;;;;;;10461252;28;20087;-79
2024/01/25 04:27:39;;;;;;;6.18;1.02;;;;;;;;;;10474653;28;20128;-78
2024/01/25 04:32:41;;;;;;;6.68;2.20;;;;;;;;;;10475517;28;20127;-78
2024/01/25 04:37:44;;;;;;;11.80;1.55;;;;;;;;;;10478403;28;20535;-78
2024/01/25 04:42:48;;;;;;;9.98;1.35;;;;;;;;;;10485817;28;20093;-79
2024/01/25 04:47:51;;;;;;;7.47;0.77;;;;;;;;;;10485535;28;20085;-79
2024/01/25 04:52:54;;;;;;;4.57;1.15;;;;;;;;;;10482446;28;20048;-77
2024/01/25 04:57:58;;;;;;;4.97;0.98;;;;;;;;;;10477783;28;20127;-77
2024/01/25 05:03:00;;;;;;;5.32;1.10;;;;;;;;;;10476837;28;20486;-77
2024/01/25 05:08:03;;;;;;;9.95;1.60;;;;;;;;;;10479889;28;20199;-77
2024/01/25 05:13:07;;;;;;;1.77;0.52;;;;;;;;;;10472659;28;20613;-77
2024/01/25 05:18:10;;;;;;;4.22;1.02;;;;;;;;;;10479505;28;20040;-76
2024/01/25 05:23:13;;;;;;;2.67;0.73;;;;;;;;;;10481695;28;20101;-77
2024/01/25 05:28:17;;;;;;;11.50;1.00;;;;;;;;;;10457269;28;20263;-77
2024/01/25 05:33:19;;;;;;;8.77;1.42;;;;;;;;;;10483873;28;20479;-78
2024/01/25 05:38:22;;;;;;;3.55;0.68;;;;;;;;;;10487100;28;20042;-78
2024/01/25 05:43:26;;;;;;;8.43;1.10;;;;;;;;;;10487057;28;20468;-77
2024/01/25 05:48:29;;;;;;;9.48;1.33;;;;;;;;;;10491980;28;20041;-74
2024/01/25 05:53:32;;;;;;;6.95;1.00;;;;;;;;;;10492025;28;20060;-77
2024/01/25 05:58:36;;;;;;;8.90;1.83;;;;;;;;;;10490079;28;20574;-75
2024/01/25 06:03:38;;;;;;;;;;;;;;;;;;10491269;28;20083;-77
2024/01/25 06:08:41;;;;;;;11.10;1.60;;;;;;;;;;10492751;28;19940;-77
2024/01/25 06:13:48;;;;;;;4.93;1.17;;;;;;;;;;10499570;28;20071;-75
2024/01/25 06:18:51;;;;;;;11.48;1.20;;;;;;;;;;10497954;28;20060;-77
2024/01/25 06:23:54;;;;;;;7.78;1.15;;;;;;;;;;10504754;28;20509;-78
2024/01/25 06:28:58;;;;;;;2.58;0.80;;;;;;;;;;10503395;28;20041;-77
2024/01/25 06:34:01;;;;;;;2.90;1.05;;;;;;;;;;10481198;28;20040;-78
2024/01/25 06:39:04;;;;;;;9.20;1.58;;;;;;;;;;10503842;28;20323;-77
2024/01/25 06:44:08;;;;;;;5.80;0.90;;;;;;;;;;10511163;28;20147;-80
2024/01/25 06:49:11;;;;;;;11.73;1.70;;;;;;;;;;10508635;28;20037;-79
2024/01/25 06:54:14;;;;;;;8.68;1.15;;;;;;;;;;10508828;28;20059;-84
2024/01/25 06:59:18;;;;;;;8.63;1.70;;;;;;;;;;10509175;28;20067;-82
2024/01/25 07:04:21;;;;;;;8.93;1.17;;;;;;;;;;10499111;28;20106;-80
2024/01/25 07:09:24;;;;;;;12.07;1.33;;;;;;;;;;10485602;28;20036;-80
2024/01/25 07:14:28;;;;;;;4.53;1.52;;;;;;;;;;10500104;28;20781;-80
2024/01/25 07:19:31;;;;;;;6.00;1.30;;;;;;;;;;10489776;28;20125;-80
2024/01/25 07:24:34;;;;;;;6.10;1.38;;;;;;;;;;10490104;28;20362;-80
2024/01/25 07:29:38;;;;;;;5.63;1.00;;;;;;;;;;10494519;28;20072;-79
2024/01/25 07:34:40;;;;;;;9.73;1.48;;;;;;;;;;10497018;28;20062;-79
2024/01/25 07:39:43;;;;;;;17.25;1.88;;;;;;;;;;10514237;28;20718;-80
2024/01/25 07:44:48;;;;;;;8.40;1.38;;;;;;;;;;10493791;28;20451;-79
2024/01/25 07:49:51;;;;;;;14.15;2.00;;;;;;;;;;10481138;28;20129;-79
2024/01/25 07:54:54;;;;;;;8.45;1.13;;;;;;;;;;10508740;28;20048;-80
2024/01/25 07:59:58;;;;;;;6.47;1.40;;;;;;;;;;10496141;28;20132;-80
2024/01/25 08:05:01;;;;;;;5.28;1.13;;;;;;;;;;10484019;28;20112;-81
2024/01/25 08:10:04;;;;;;;7.43;1.97;;;;;;;;;;10516895;28;20052;-79
2024/01/25 08:15:09;;;;;;;5.75;1.05;;;;;;;;;;10506589;28;20058;-81
2024/01/25 08:20:13;;;;;;;9.48;2.08;;;;;;;;;;10520920;28;20048;-80
2024/01/25 08:25:16;;;;;;;;;;;;;;;;;;10488336;28;20048;-80
2024/01/25 08:30:20;;;;;;;4.88;1.10;;;;;;;;;;10491853;28;20020;-79
2024/01/25 08:35:23;;;;;;;4.03;1.17;;;;;;;;;;10496827;28;20041;-79
2024/01/25 08:40:26;;;;;;;13.27;1.80;;;;;;;;;;10483530;28;20348;-80
2024/01/25 08:45:33;;;;;;;11.15;2.17;;;;;;;;;;10478038;28;20028;-79
2024/01/25 08:50:36;;;;;;;6.75;1.23;;;;;;;;;;10487560;28;20111;-80
2024/01/25 08:55:39;;;;;;;6.22;1.48;;;;;;;;;;10471069;28;20048;-78
2024/01/25 09:00:43;;;;;;;15.13;2.43;;;;;;;;;;10480917;28;20172;-82
2024/01/25 09:05:47;;;;;;;8.23;1.98;;;;;;;;;;10471420;28;20479;-80
2024/01/25 09:10:50;;;;;;;10.20;1.73;;;;;;;;;;10474606;28;20052;-83
2024/01/25 09:15:54;;;;;;;;;;;;;;;;;;10472329;28;20124;-81
2024/01/25 09:20:58;;;;;;;12.48;3.00;;;;;;;;;;10473872;28;20319;-81
2024/01/25 09:26:00;;;;;;;11.55;2.10;;;;;;;;;;10476721;28;21316;-81
2024/01/25 09:31:04;;;;;;;;;;;;;;;;;;10479816;28;20051;-82
2024/01/25 09:36:08;;;;;;;8.60;2.78;;;;;;;;;;10461316;28;20021;-81
2024/01/25 09:41:11;;;;;;;7.07;2.40;;;;;;;;;;10478071;28;20055;-81
2024/01/25 09:46:15;;;;;;;11.27;2.97;;;;;;;;;;10469987;28;20036;-82
2024/01/25 09:51:20;;;;;;;11.35;2.30;;;;;;;;;;10478141;28;20045;-81
2024/01/25 09:56:23;;;;;;;5.57;1.52;;;;;;;;;;10466043;28;20052;-81
2024/01/25 10:01:26;;;;;;;4.90;2.00;;;;;;;;;;10466915;28;20512;-81
2024/01/25 10:06:30;;;;;;;10.40;2.17;;;;;;;;;;10479552;28;20135;-81
2024/01/25 10:11:35;;;;;;;9.45;2.13;;;;;;;;;;10456625;28;20436;-80
2024/01/25 10:16:45;;;;;;;11.52;1.88;;;;;;;;;;10478211;28;20512;-80
2024/01/25 10:21:50;;;;;;;6.22;1.60;;;;;;;;;;10479363;28;20076;-80
2024/01/25 10:26:54;;;;;;;9.70;1.90;;;;;;;;;;10479766;28;20043;-82
2024/01/25 10:31:57;;;;;;;10.23;1.85;;;;;;;;;;10474984;28;20124;-80
2024/01/25 10:37:03;;;;;;;8.00;2.70;;;;;;;;;;10481114;28;20055;-82
2024/01/25 10:42:06;;;;;;;10.13;2.90;;;;;;;;;;10476697;28;20048;-82
2024/01/25 10:47:10;;;;;;;11.88;2.35;;;;;;;;;;10479961;28;20062;-81
2024/01/25 10:52:14;;;;;;;6.28;2.08;;;;;;;;;;10483162;28;20053;-81
2024/01/25 10:57:17;;;;;;;6.38;2.13;;;;;;;;;;10488344;28;20040;-81
2024/01/25 11:02:20;;;;;;;8.47;2.33;;;;;;;;;;10493978;28;20102;-82
2024/01/25 11:07:24;;;;;;;11.70;2.60;;;;;;;;;;10488210;28;20053;-82
2024/01/25 11:12:27;;;;;;;11.38;2.75;;;;;;;;;;10483962;28;20037;-82
2024/01/25 11:17:32;;;;;;;12.77;2.35;;;;;;;;;;10481143;28;20071;-81
2024/01/25 11:22:37;;;;;;;6.85;2.67;;;;;;;;;;10482054;28;20047;-83
2024/01/25 11:27:39;;;;;;;9.75;2.10;;;;;;;;;;10485780;28;20036;-83
2024/01/25 11:32:46;;;;;;;10.25;2.72;;;;;;;;;;10482872;28;20040;-83
2024/01/25 11:37:51;;;;;;;11.30;2.90;;;;;;;;;;10485844;28;20127;-81
2024/01/25 11:42:54;;;;;;;9.23;3.08;;;;;;;;;;10483970;28;20048;-81
2024/01/25 11:47:57;;;;;;;;;;;;;;;;;;10489979;28;20090;-82
2024/01/25 11:53:00;;;;;;;9.65;2.33;;;;;;;;;;10480111;28;20026;-82
2024/01/25 11:58:03;;;;;;;8.25;2.50;;;;;;;;;;10468744;28;20543;-82
2024/01/25 12:03:06;;;;;;;6.50;2.30;;;;;;;;;;10475142;28;20039;-80
2024/01/25 12:08:13;;;;;;;7.72;1.73;;;;;;;;;;10461690;28;20042;-80
2024/01/25 12:13:17;;;;;;;11.32;1.75;;;;;;;;;;10478668;28;20036;-80
2024/01/25 12:18:20;;;;;;;6.97;1.30;;;;;;;;;;10481729;28;20080;-79
2024/01/25 12:23:24;;;;;;;9.13;1.95;;;;;;;;;;10477905;28;20053;-80
2024/01/25 12:28:27;;;;;;;6.15;1.50;;;;;;;;;;10477864;28;20044;-81
2024/01/25 12:33:31;;;;;;;3.58;1.58;;;;;;;;;;10454386;28;20193;-81
2024/01/25 12:38:36;;;;;;;4.15;1.73;;;;;;;;;;10474842;28;20043;-81
2024/01/25 12:43:38;;;;;;;9.07;2.10;;;;;;;;;;10472873;28;20044;-80
2024/01/25 12:48:44;;;;;;;5.35;1.60;;;;;;;;;;10473071;28;20123;-80
2024/01/25 12:53:51;;;;;;;4.47;1.38;;;;;;;;;;10471957;28;20060;-80
2024/01/25 12:58:54;;;;;;;5.05;1.50;;;;;;;;;;10471195;28;20044;-80
2024/01/25 13:03:57;;;;;;;9.38;1.90;;;;;;;;;;10471297;28;20174;-80
2024/01/25 13:09:01;;;;;;;10.57;1.70;;;;;;;;;;10474086;28;20044;-80
2024/01/25 13:14:06;;;;;;;5.38;1.52;;;;;;;;;;10473277;28;20881;-80
2024/01/25 13:19:11;;;;;;;8.85;2.10;;;;;;;;;;10473024;28;20420;-80
2024/01/25 13:24:15;;;;;;;6.72;1.40;;;;;;;;;;10474503;28;20129;-81
2024/01/25 13:29:18;;;;;;;9.13;1.92;;;;;;;;;;10472381;28;20779;-81
2024/01/25 13:34:20;;;;;;;11.57;1.58;;;;;;;;;;10472282;28;20154;-79
2024/01/25 13:39:25;;;;;;;4.80;1.20;;;;;;;;;;10470151;28;20047;-80
2024/01/25 13:44:28;;;;;;;6.85;1.30;;;;;;;;;;10472647;28;20062;-80
2024/01/25 13:49:31;;;;;;;7.05;1.98;;;;;;;;;;10485751;28;20409;-80
2024/01/25 13:54:35;;;;;;;3.77;1.33;;;;;;;;;;10482419;28;20119;-80
2024/01/25 13:59:38;;;;;;;5.80;1.58;;;;;;;;;;10479676;28;20052;-79
2024/01/25 14:04:40;;;;;;;6.07;1.58;;;;;;;;;;10479385;28;20045;-79
2024/01/25 14:09:45;;;;;;;8.70;1.85;;;;;;;;;;10477560;28;20238;-78
2024/01/25 14:14:49;;;;;;;4.85;1.40;;;;;;;;;;10455211;28;20139;-79
2024/01/25 14:19:54;;;;;;;6.45;1.27;;;;;;;;;;10476820;28;20112;-81
2024/01/25 14:24:58;;;;;;;8.07;1.38;;;;;;;;;;10480602;28;20610;-81
2024/01/25 14:30:03;;;;;;;4.90;1.27;;;;;;;;;;10478473;28;20053;-80
2024/01/25 14:35:06;;;;;;;4.30;1.08;;;;;;;;;;10477669;28;20040;-80
2024/01/25 14:40:11;;;;;;;6.07;1.60;;;;;;;;;;10481770;28;20318;-81
2024/01/25 14:45:36;;;;;;;6.55;1.40;;;;;;;;;;10481117;28;20048;-80
2024/01/25 14:50:38;;;;;;;7.45;1.05;;;;;;;;;;10481613;28;20540;-80
2024/01/25 14:55:42;;;;;;;6.38;1.42;;;;;;;;;;10474021;28;20147;-80
2024/01/25 15:00:45;;;;;;;7.93;2.08;;;;;;;;;;10483507;28;20045;-80
2024/01/25 15:05:48;;;;;;;7.25;1.30;;;;;;;;;;10484281;28;20056;-80
2024/01/25 15:10:52;;;;;;;5.35;1.20;;;;;;;;;;10483051;28;20129;-80
2024/01/25 15:15:55;;;;;;;24.98;1.98;;;;;;;;;;10477401;28;20056;-79
2024/01/25 15:20:57;;;;;;;4.65;1.20;;;;;;;;;;10479346;28;20124;-80
2024/01/25 15:26:03;;;;;;;5.50;1.27;;;;;;;;;;10478240;28;20051;-80
2024/01/25 15:31:06;;;;;;;8.80;1.80;;;;;;;;;;10473934;28;20613;-79
2024/01/25 15:36:09;;;;;;;13.00;1.70;;;;;;;;;;10475585;28;20051;-78
2024/01/25 15:41:14;;;;;;;7.93;1.65;;;;;;;;;;10473636;28;20135;-79
2024/01/25 15:46:17;;;;;;;8.80;1.50;;;;;;;;;;10478456;28;20102;-79
2024/01/25 15:51:21;;;;;;;7.95;1.35;;;;;;;;;;10477840;28;20076;-80
2024/01/25 15:56:25;;;;;;;8.18;1.90;;;;;;;;;;10486031;28;20036;-81
2024/01/25 16:01:27;;;;;;;;;;;;;;;;;;10481724;28;20067;-80
2024/01/25 16:06:30;;;;;;;8.90;1.80;;;;;;;;;;10489606;28;19924;-81
2024/01/25 16:11:34;;;;;;;17.13;5.53;;;;;;;;;;10482416;28;20543;-81
2024/01/25 16:16:37;;;;;;;9.20;2.03;;;;;;;;;;10487383;28;20035;-81
2024/01/25 16:21:39;;;;;;;9.90;1.88;;;;;;;;;;10484219;28;20074;-81
2024/01/25 16:26:43;;;;;;;12.80;1.90;;;;;;;;;;10489100;28;20044;-80
2024/01/25 16:31:46;;;;;;;3.58;1.35;;;;;;;;;;10483337;28;20332;-81
2024/01/25 16:36:48;;;;;;;8.35;2.60;;;;;;;;;;10485077;28;20463;-81
2024/01/25 16:41:53;;;;;;;10.85;2.25;;;;;;;;;;10471078;28;20048;-83
2024/01/25 16:46:55;;;;;;;;;;;;;;;;;;10485972;28;20044;-80
2024/01/25 16:51:59;;;;;;;9.80;2.08;;;;;;;;;;10492564;28;19920;-81
2024/01/25 16:57:04;;;;;;;6.82;1.67;;;;;;;;;;10489251;28;20456;-80
2024/01/25 17:02:07;;;;;;;7.70;1.95;;;;;;;;;;10490799;28;20036;-79
2024/01/25 17:07:09;;;;;;;7.03;1.67;;;;;;;;;;10485658;28;20543;-79
2024/01/25 17:12:15;;;;;;;9.40;2.13;;;;;;;;;;10482451;28;20032;-81
2024/01/25 17:17:18;;;;;;;4.30;1.45;;;;;;;;;;10491523;28;20084;-81
2024/01/25 17:22:21;;;;;;;10.53;2.43;;;;;;;;;;10492586;28;20534;-81
2024/01/25 17:27:25;;;;;;;5.40;1.45;;;;;;;;;;10473933;28;20040;-80
2024/01/25 17:32:28;;;;;;;7.90;1.60;;;;;;;;;;10482074;28;20032;-80
2024/01/25 17:37:32;;;;;;;13.15;2.53;;;;;;;;;;10473071;28;20518;-80
2024/01/25 17:42:35;;;;;;;;;;;;;;;;;;10481427;28;20090;-80
2024/01/25 17:47:41;;;;;;;13.88;2.63;;;;;;;;;;10487076;28;19926;-81
2024/01/25 17:52:44;;;;;;;7.78;2.20;;;;;;;;;;10485350;28;20404;-81
2024/01/25 17:57:47;;;;;;;9.55;1.73;;;;;;;;;;10482103;28;20067;-81
2024/01/25 18:02:54;;;;;;;4.07;1.17;;;;;;;;;;10483450;28;20029;-81
2024/01/25 18:08:21;;;;;;;5.43;2.10;;;;;;;;;;10483626;28;20230;-80
2024/01/25 18:13:31;;;;;;;6.55;1.98;;;;;;;;;;10466979;28;20064;-79
2024/01/25 18:18:41;;;;;;;4.13;1.42;;;;;;;;;;10482773;28;20037;-80
2024/01/25 18:23:49;;;;;;;4.30;1.83;;;;;;;;;;10461881;28;20153;-80
2024/01/25 18:29:01;;;;;;;6.93;1.90;;;;;;;;;;10484395;28;20167;-79
2024/01/25 18:34:10;;;;;;;4.05;1.30;;;;;;;;;;10463386;28;20575;-79
2024/01/25 18:39:22;;;;;;;4.78;1.60;;;;;;;;;;10467016;28;20064;-78
2024/01/25 18:50:04;;;;;;;1.42;1.00;;;;;;;;;;10486216;28;20040;-81
2024/01/25 18:55:11;;;;;;;2.78;1.30;;;;;;;;;;10486239;28;20571;-81
2024/01/25 19:00:26;;;;;;;3.22;1.23;;;;;;;;;;10447035;28;20199;-80
2024/01/25 19:05:44;;;;;;;3.40;1.50;;;;;;;;;;10489091;28;20032;-81
2024/01/25 19:10:53;;;;;;;1.38;0.77;;;;;;;;;;10487545;28;20048;-81
2024/01/25 19:15:59;;;;;;;2.95;0.80;;;;;;;;;;10493973;28;20316;-84
2024/01/25 19:26:52;;;;;;;2.17;1.35;;;;;;;;;;10492880;28;20063;-81
2024/01/25 19:32:20;;;;;;;2.42;1.35;;;;;;;;;;10487573;28;20063;-81
2024/01/25 19:37:38;;;;;;;3.88;1.60;;;;;;;;;;10488562;28;20040;-83
2024/01/25 19:42:54;;;;;;;3.05;0.68;;;;;;;;;;10475102;28;20325;-83
2024/01/25 19:48:22;;;;;;;4.75;1.77;;;;;;;;;;10488595;28;20044;-82
2024/01/25 19:53:32;;;;;;;4.10;1.73;;;;;;;;;;10469242;28;20136;-81
2024/01/25 19:58:44;;;;;;;3.40;1.67;;;;;;;;;;10491277;28;20051;-82
2024/01/25 20:03:52;;;;;;;3.95;1.70;;;;;;;;;;10467514;28;20057;-82
2024/01/25 20:09:02;;;;;;;1.77;1.23;;;;;;;;;;10470915;28;20098;-82
2024/01/25 20:14:13;;;;;;;1.02;0.90;;;;;;;;;;10489299;28;20158;-87
2024/01/25 20:19:28;;;;;;;3.97;2.03;;;;;;;;;;10455646;28;20040;-80
2024/01/25 20:24:38;;;;;;;1.88;1.08;;;;;;;;;;10470502;28;20036;-81
2024/01/25 20:29:56;;;;;;;3.03;1.55;;;;;;;;;;10475114;28;20044;-80
2024/01/25 20:35:08;;;;;;;4.32;1.63;;;;;;;;;;10468472;28;20040;-82
2024/01/25 20:40:14;;;;;;;5.13;1.90;;;;;;;;;;10490114;28;20666;-80
2024/01/25 20:45:24;;;;;;;1.65;1.10;;;;;;;;;;10489374;28;20419;-80
2024/01/25 20:50:42;;;;;;;3.03;1.48;;;;;;;;;;10486700;28;20285;-79
2024/01/25 20:55:48;;;;;;;3.42;1.92;;;;;;;;;;10485533;28;20528;-81
2024/01/25 21:00:56;;;;;;;1.85;1.20;;;;;;;;;;10482895;28;20104;-80
2024/01/25 21:06:07;;;;;;;2.20;1.30;;;;;;;;;;10486713;28;20438;-80
2024/01/25 21:11:27;;;;;;;4.38;2.22;;;;;;;;;;10494470;28;20033;-78
2024/01/25 21:16:43;;;;;;;3.45;2.05;;;;;;;;;;10486040;28;20485;-80
2024/01/25 21:21:52;;;;;;;3.80;1.55;;;;;;;;;;10486635;28;20075;-79
2024/01/25 21:26:56;;;;;;;2.65;1.58;;;;;;;;;;10459698;28;20174;-79
2024/01/25 21:32:13;;;;;;;3.08;2.03;;;;;;;;;;10452549;28;20936;-82
2024/01/25 21:37:21;;;;;;;3.35;1.42;;;;;;;;;;10476501;28;20064;-80
2024/01/25 21:42:34;;;;;;;3.83;2.25;;;;;;;;;;10476132;28;20047;-80
2024/01/25 21:47:54;;;;;;;3.27;2.00;;;;;;;;;;10478625;28;20094;-81
2024/01/25 21:52:59;;;;;;;5.38;2.47;;;;;;;;;;10480723;28;20793;-79
2024/01/25 21:58:06;;;;;;;5.63;2.53;;;;;;;;;;10478782;28;20048;-81
2024/01/25 22:03:19;;;;;;;3.90;2.08;;;;;;;;;;10480407;28;20058;-81
2024/01/25 22:08:26;;;;;;;5.55;2.17;;;;;;;;;;10463913;28;20552;-79
2024/01/25 22:13:30;;;;;;;2.15;1.38;;;;;;;;;;10466921;28;20060;-79
2024/01/25 22:18:45;;;;;;;4.22;2.10;;;;;;;;;;10488943;28;20110;-81
2024/01/25 22:23:55;;;;;;;4.57;2.35;;;;;;;;;;10475837;28;20045;-81
2024/01/25 22:29:06;;;;;;;6.43;2.47;;;;;;;;;;10470972;28;20048;-81
2024/01/25 22:34:21;;;;;;;5.32;2.50;;;;;;;;;;10471876;28;20517;-81
2024/01/25 22:39:34;;;;;;;3.90;2.40;;;;;;;;;;10487289;28;20482;-81
2024/01/25 22:44:49;;;;;;;3.95;2.10;;;;;;;;;;10484619;28;20047;-82
2024/01/25 22:50:08;;;;;;;4.30;2.30;;;;;;;;;;10482508;28;20036;-81
2024/01/25 22:55:20;;;;;;;;;;;;;;;;;;10471755;28;20061;-81
2024/01/25 23:00:31;;;;;;;5.07;2.58;;;;;;;;;;10479041;28;20110;-81
2024/01/25 23:06:05;;;;;;;5.05;2.47;;;;;;;;;;10483697;28;20066;-80
2024/01/25 23:11:10;;;;;;;5.85;3.05;;;;;;;;;;10493170;28;20115;-80
2024/01/25 23:16:21;;;;;;;4.68;2.25;;;;;;;;;;10484890;28;20044;-81
2024/01/25 23:21:34;;;;;;;4.15;2.28;;;;;;;;;;10485773;28;20290;-81
2024/01/25 23:26:46;;;;;;;4.35;2.33;;;;;;;;;;10483610;28;20044;-80
2024/01/25 23:31:51;;;;;;;4.82;2.50;;;;;;;;;;10482452;28;20044;-79
2024/01/25 23:37:30;;;;;;;5.47;2.67;;;;;;;;;;10486926;28;20397;-80
2024/01/25 23:48:14;;;;;;;4.82;2.42;;;;;;;;;;10460907;28;20052;-81
2024/01/25 23:53:25;;;;;;;4.50;2.00;;;;;;;;;;10486141;28;20052;-81
2024/01/25 23:58:45;;;;;;;4.80;2.45;;;;;;;;;;10484290;28;20140;-81
